Time,TemperatureF,DewpointF,PressureIn,WindDirection,WindDirectionDegrees,WindSpeedMPH,WindSpeedGustMPH,Humidity,HourlyPrecipIn,Conditions,Clouds,dailyrainin,SolarRadiationWatts/m^2,SoftwareType,DateUTC
2013-07-25 00:03:00,59.9,54.4,29.88,SSE,149,0.0,0.0,82,0.00,RA,,0.00,0.0,WeatherDisplay:10.37,2013-07-24 23:03:00,
2013-07-25 00:08:00,59.9,55.1,29.88,SSE,149,0.0,0.0,84,0.00,RA,,0.00,0.0,WeatherDisplay:10.37,2013-07-24 23:08:00,
2013-07-25 00:13:00,59.8,55.3,29.88,SSE,149,0.0,0.0,85,0.00,CLR,,0.00,0.0,WeatherDisplay:10.37,2013-07-24 23:13:00,
2013-07-25 00:18:00,59.7,54.9,29.88,SSE,149,0.0,0.0,84,0.00,CLR,,0.00,0.0,WeatherDisplay:10.37,2013-07-24 23:18:00,
2013-07-25 00:23:00,59.6,54.8,29.88,SSE,149,0.0,0.0,84,0.00,CLR,,0.00,0.0,WeatherDisplay:10.37,2013-07-24 23:23:00,
2013-07-25 00:28:00,59.6,54.8,29.88,SSE,150,0.0,0.0,84,0.00,CLR,,0.00,0.0,WeatherDisplay:10.37,2013-07-24 23:28:00,
2013-07-25 00:33:00,59.5,54.7,29.87,SSE,149,0.0,0.0,84,0.00,CLR,,0.00,0.0,WeatherDisplay:10.37,2013-07-24 23:33:00,
2013-07-25 00:38:00,59.4,54.9,29.87,SSE,149,0.0,0.0,85,0.00,CLR,,0.00,0.0,WeatherDisplay:10.37,2013-07-24 23:38:00,
2013-07-25 00:43:00,59.4,54.9,29.87,SSE,149,0.0,0.0,85,0.00,CLR,,0.00,0.0,WeatherDisplay:10.37,2013-07-24 23:43:00,
2013-07-25 00:48:00,59.3,54.8,29.87,SSE,149,0.0,0.0,85,0.00,CLR,,0.00,0.0,WeatherDisplay:10.37,2013-07-24 23:48:00,
2013-07-25 00:53:00,59.3,54.8,29.87,SSE,149,0.0,0.0,85,0.00,CLR,,0.00,0.0,WeatherDisplay:10.37,2013-07-24 23:53:00,
2013-07-25 00:58:00,59.3,54.8,29.87,SSE,149,0.0,0.0,85,0.00,CLR,,0.00,0.0,WeatherDisplay:10.37,2013-07-24 23:58:00,
2013-07-25 01:03:00,59.2,54.7,29.87,SSE,149,0.0,0.0,85,0.00,CLR,,0.00,0.0,WeatherDisplay:10.37,2013-07-25 00:03:00,
2013-07-25 01:08:00,59.2,55.0,29.87,SSE,150,0.0,0.0,86,0.00,CLR,,0.00,0.0,WeatherDisplay:10.37,2013-07-25 00:08:00,
2013-07-25 01:13:00,59.2,54.7,29.87,SSE,149,3.5,3.5,85,0.00,CLR,,0.00,0.0,WeatherDisplay:10.37,2013-07-25 00:13:00,
2013-07-25 01:18:00,59.2,54.7,29.87,SSE,149,2.3,2.3,85,0.00,CLR,,0.00,0.0,WeatherDisplay:10.37,2013-07-25 00:18:00,
2013-07-25 01:23:00,59.2,54.7,29.87,SSE,149,0.0,0.0,85,0.00,CLR,,0.00,0.0,WeatherDisplay:10.37,2013-07-25 00:23:00,
2013-07-25 01:28:00,59.2,54.7,29.87,SSE,149,0.0,0.0,85,0.00,CLR,,0.00,0.0,WeatherDisplay:10.37,2013-07-25 00:28:00,
2013-07-25 01:33:00,59.2,54.7,29.86,SSE,149,0.0,0.0,85,0.00,CLR,,0.00,0.0,WeatherDisplay:10.37,2013-07-25 00:33:00,
2013-07-25 01:38:00,59.3,54.8,29.86,SSE,149,0.0,0.0,85,0.00,CLR,,0.00,0.0,WeatherDisplay:10.37,2013-07-25 00:38:00,
2013-07-25 01:43:00,59.3,54.8,29.86,SSE,149,2.0,2.0,85,0.00,CLR,,0.00,0.0,WeatherDisplay:10.37,2013-07-25 00:43:00,
2013-07-25 01:48:00,59.3,54.8,29.87,SSE,149,0.0,0.0,85,0.00,CLR,,0.00,0.0,WeatherDisplay:10.37,2013-07-25 00:48:00,
2013-07-25 01:53:00,59.3,54.8,29.87,SSE,150,0.0,0.0,85,0.00,CLR,,0.00,0.0,WeatherDisplay:10.37,2013-07-25 00:53:00,
2013-07-25 01:58:00,59.3,54.8,29.86,SSE,149,0.0,0.0,85,0.00,CLR,,0.00,0.0,WeatherDisplay:10.37,2013-07-25 00:58:00,
2013-07-25 02:03:00,59.3,54.8,29.86,SSE,150,0.0,0.3,85,0.00,CLR,,0.00,0.0,WeatherDisplay:10.37,2013-07-25 01:03:00,
2013-07-25 02:08:00,59.2,54.7,29.86,SSE,149,0.0,0.0,85,0.00,CLR,,0.00,0.0,WeatherDisplay:10.37,2013-07-25 01:08:00,
2013-07-25 02:13:00,59.1,54.6,29.86,SSE,149,0.0,0.0,85,0.00,CLR,,0.00,0.0,WeatherDisplay:10.37,2013-07-25 01:13:00,
2013-07-25 02:18:00,59.0,54.5,29.86,SSE,150,0.0,0.0,85,0.00,CLR,,0.00,0.0,WeatherDisplay:10.37,2013-07-25 01:18:00,
2013-07-25 02:23:00,59.0,54.5,29.86,SSE,149,0.0,0.0,85,0.00,CLR,,0.00,0.0,WeatherDisplay:10.37,2013-07-25 01:23:00,
2013-07-25 02:28:00,58.9,54.4,29.87,SSE,149,0.0,0.0,85,0.00,CLR,,0.00,0.0,WeatherDisplay:10.37,2013-07-25 01:28:00,
2013-07-25 02:33:00,58.8,54.6,29.86,SSE,149,0.0,0.0,86,0.00,CLR,,0.00,0.0,WeatherDisplay:10.37,2013-07-25 01:33:00,
2013-07-25 02:38:00,58.7,54.5,29.86,SSE,149,0.0,0.0,86,0.00,CLR,,0.00,0.0,WeatherDisplay:10.37,2013-07-25 01:38:00,
2013-07-25 02:43:00,58.7,54.5,29.86,SSE,149,0.0,0.0,86,0.00,CLR,,0.00,0.0,WeatherDisplay:10.37,2013-07-25 01:43:00,
2013-07-25 02:48:00,58.7,54.5,29.86,SSE,149,0.0,0.0,86,0.00,CLR,,0.00,0.0,WeatherDisplay:10.37,2013-07-25 01:48:00,
2013-07-25 02:53:00,58.7,54.5,29.86,SSE,148,0.0,0.0,86,0.00,CLR,,0.00,0.0,WeatherDisplay:10.37,2013-07-25 01:53:00,
2013-07-25 02:58:00,58.7,54.5,29.86,SSE,149,0.0,0.0,86,0.00,CLR,,0.00,0.0,WeatherDisplay:10.37,2013-07-25 01:58:00,
2013-07-25 03:03:00,58.7,54.5,29.85,SSE,149,0.0,0.0,86,0.00,CLR,,0.00,0.0,WeatherDisplay:10.37,2013-07-25 02:03:00,
2013-07-25 03:08:00,58.7,54.5,29.85,SSE,149,0.0,0.0,86,0.00,CLR,,0.00,0.0,WeatherDisplay:10.37,2013-07-25 02:08:00,
2013-07-25 03:13:00,58.6,54.4,29.85,SSE,150,0.0,0.0,86,0.00,CLR,,0.00,0.0,WeatherDisplay:10.37,2013-07-25 02:13:00,
2013-07-25 03:18:00,58.6,54.4,29.85,SSE,149,0.0,0.0,86,0.00,CLR,,0.00,0.0,WeatherDisplay:10.37,2013-07-25 02:18:00,
2013-07-25 03:23:00,58.5,54.3,29.85,SSE,149,0.0,0.0,86,0.00,CLR,,0.00,0.0,WeatherDisplay:10.37,2013-07-25 02:23:00,
2013-07-25 03:28:00,58.5,54.3,29.85,SSE,149,0.0,0.0,86,0.00,CLR,,0.00,0.0,WeatherDisplay:10.37,2013-07-25 02:28:00,
2013-07-25 03:33:00,58.5,54.3,29.85,SSE,149,0.0,0.0,86,0.00,CLR,,0.00,0.0,WeatherDisplay:10.37,2013-07-25 02:33:00,
2013-07-25 03:39:00,58.4,54.2,29.85,SSE,149,0.0,0.0,86,0.00,CLR,,0.00,0.0,WeatherDisplay:10.37,2013-07-25 02:39:00,
2013-07-25 03:44:00,58.3,54.1,29.84,SSE,149,0.0,0.0,86,0.00,CLR,,0.00,0.0,WeatherDisplay:10.37,2013-07-25 02:44:00,
2013-07-25 03:49:00,58.3,54.1,29.84,SSE,149,0.0,0.0,86,0.00,CLR,,0.00,0.0,WeatherDisplay:10.37,2013-07-25 02:49:00,
2013-07-25 03:54:00,58.2,54.0,29.83,SSE,149,0.0,0.0,86,0.00,CLR,,0.00,0.0,WeatherDisplay:10.37,2013-07-25 02:54:00,
2013-07-25 03:59:00,58.2,54.3,29.84,SSE,150,0.0,0.0,87,0.00,CLR,,0.00,0.0,WeatherDisplay:10.37,2013-07-25 02:59:00,
2013-07-25 04:04:00,58.1,54.2,29.84,SSE,149,0.0,0.0,87,0.00,CLR,,0.00,0.0,WeatherDisplay:10.37,2013-07-25 03:04:00,
2013-07-25 04:09:00,58.1,54.2,29.84,SSE,149,0.0,0.0,87,0.00,CLR,,0.00,0.0,WeatherDisplay:10.37,2013-07-25 03:09:00,
2013-07-25 04:14:00,57.9,54.1,29.84,SSE,149,0.0,0.0,87,0.00,CLR,,0.00,0.0,WeatherDisplay:10.37,2013-07-25 03:14:00,
2013-07-25 04:19:00,57.9,54.1,29.84,SSE,150,0.0,0.0,87,0.00,CLR,,0.00,0.0,WeatherDisplay:10.37,2013-07-25 03:19:00,
2013-07-25 04:24:00,57.8,54.0,29.84,SSE,149,0.0,0.0,87,0.00,CLR,,0.00,0.0,WeatherDisplay:10.37,2013-07-25 03:24:00,
2013-07-25 04:29:00,57.8,54.0,29.84,SSE,149,0.0,0.0,87,0.00,CLR,,0.00,0.0,WeatherDisplay:10.37,2013-07-25 03:29:00,
2013-07-25 04:35:00,57.8,54.0,29.84,SSE,149,0.0,0.0,87,0.00,CLR,,0.00,0.0,WeatherDisplay:10.37,2013-07-25 03:35:00,
2013-07-25 04:40:00,57.8,54.0,29.85,SSE,149,0.0,0.0,87,0.00,CLR,,0.00,0.0,WeatherDisplay:10.37,2013-07-25 03:40:00,
2013-07-25 04:45:00,57.7,54.2,29.84,SSE,149,0.0,0.0,88,0.00,CLR,,0.00,0.0,WeatherDisplay:10.37,2013-07-25 03:45:00,
2013-07-25 04:51:00,57.7,54.2,29.84,SSE,150,0.0,0.0,88,0.00,CLR,,0.00,0.0,WeatherDisplay:10.37,2013-07-25 03:51:00,
2013-07-25 04:56:00,57.7,54.2,29.84,SSE,149,0.0,0.0,88,0.00,CLR,,0.00,0.0,WeatherDisplay:10.37,2013-07-25 03:56:00,
2013-07-25 05:01:00,57.7,54.2,29.84,SSE,149,0.0,0.0,88,0.00,OVC,,0.00,0.0,WeatherDisplay:10.37,2013-07-25 04:01:00,
2013-07-25 05:02:00,57.7,54.2,29.84,SSE,149,0.0,0.0,88,0.00,OVC,,0.00,0.0,WeatherDisplay:10.37,2013-07-25 04:02:00,
2013-07-25 05:07:00,57.7,54.2,29.84,SSE,149,0.0,0.0,88,0.00,OVC,,0.00,0.0,WeatherDisplay:10.37,2013-07-25 04:07:00,
2013-07-25 05:12:00,57.8,54.3,29.85,SSE,149,0.0,0.0,88,0.00,OVC,,0.00,0.0,WeatherDisplay:10.37,2013-07-25 04:12:00,
2013-07-25 05:17:00,57.8,54.3,29.84,SE,144,0.0,0.0,88,0.00,OVC,,0.00,0.0,WeatherDisplay:10.37,2013-07-25 04:17:00,
2013-07-25 05:22:00,57.8,54.3,29.84,SE,144,0.0,0.0,88,0.00,OVC,,0.00,5.0,WeatherDisplay:10.37,2013-07-25 04:22:00,
2013-07-25 05:27:00,57.9,54.7,29.84,SE,144,2.0,2.0,89,0.00,BKN,,0.00,9.0,WeatherDisplay:10.37,2013-07-25 04:27:00,
2013-07-25 05:32:00,57.9,54.7,29.84,SE,140,3.0,3.0,89,0.00,BKN,,0.00,11.0,WeatherDisplay:10.37,2013-07-25 04:32:00,
2013-07-25 05:37:00,58.0,54.8,29.84,SE,140,3.5,3.5,89,0.00,BKN,,0.00,9.0,WeatherDisplay:10.37,2013-07-25 04:37:00,
2013-07-25 05:42:00,58.1,54.9,29.84,SE,139,0.0,0.0,89,0.00,BKN,,0.00,11.0,WeatherDisplay:10.37,2013-07-25 04:42:00,
2013-07-25 05:47:00,58.2,55.0,29.84,SE,140,0.0,0.0,89,0.00,BKN,,0.00,16.0,WeatherDisplay:10.37,2013-07-25 04:47:00,
2013-07-25 05:52:00,58.3,55.1,29.84,SE,136,3.5,3.5,89,0.00,BKN,,0.00,16.0,WeatherDisplay:10.37,2013-07-25 04:52:00,
2013-07-25 05:57:00,58.3,55.1,29.83,SE,134,3.5,3.5,89,0.00,BKN,,0.00,14.0,WeatherDisplay:10.37,2013-07-25 04:57:00,
2013-07-25 06:02:00,58.4,55.5,29.83,SE,132,4.6,4.6,90,0.00,BKN,,0.00,14.0,WeatherDisplay:10.37,2013-07-25 05:02:00,
2013-07-25 06:07:00,58.5,55.6,29.83,ESE,118,4.6,4.6,90,0.00,BKN,,0.00,14.0,WeatherDisplay:10.37,2013-07-25 05:07:00,
2013-07-25 06:12:00,58.6,55.7,29.83,ESE,121,5.0,5.0,90,0.00,BKN,,0.00,16.0,WeatherDisplay:10.37,2013-07-25 05:12:00,
2013-07-25 06:17:00,58.7,56.1,29.83,ESE,118,4.6,4.6,91,0.00,BKN,,0.00,19.0,WeatherDisplay:10.37,2013-07-25 05:17:00,
2013-07-25 06:22:00,58.7,56.1,29.83,SE,131,5.8,5.8,91,0.00,BKN,,0.00,21.0,WeatherDisplay:10.37,2013-07-25 05:22:00,
2013-07-25 06:27:00,58.8,56.2,29.83,ESE,119,4.6,4.6,91,0.00,BKN,,0.00,30.0,WeatherDisplay:10.37,2013-07-25 05:27:00,
2013-07-25 06:32:00,58.9,56.3,29.83,ESE,119,4.6,4.6,91,0.00,BKN,,0.00,47.0,WeatherDisplay:10.37,2013-07-25 05:32:00,
2013-07-25 06:37:00,58.9,56.3,29.83,ESE,119,4.6,4.6,91,0.00,BKN,,0.00,65.0,WeatherDisplay:10.37,2013-07-25 05:37:00,
2013-07-25 06:42:00,59.0,56.4,29.83,ESE,119,4.0,4.0,91,0.00,BKN,,0.00,62.0,WeatherDisplay:10.37,2013-07-25 05:42:00,
2013-07-25 06:47:00,59.1,56.5,29.83,ESE,118,3.5,3.5,91,0.00,BKN,,0.00,47.0,WeatherDisplay:10.37,2013-07-25 05:47:00,
2013-07-25 06:52:00,59.2,56.6,29.83,ESE,117,4.6,4.6,91,0.00,BKN,,0.00,33.0,WeatherDisplay:10.37,2013-07-25 05:52:00,
2013-07-25 06:57:00,59.2,56.6,29.83,ESE,118,2.3,2.3,91,0.00,BKN,,0.00,28.0,WeatherDisplay:10.37,2013-07-25 05:57:00,
2013-07-25 07:02:00,59.2,56.6,29.83,ESE,118,3.5,3.5,91,0.00,BKN,,0.00,26.0,WeatherDisplay:10.37,2013-07-25 06:02:00,
2013-07-25 07:07:00,59.3,56.7,29.83,SE,127,4.6,4.6,91,0.00,BKN,,0.00,26.0,WeatherDisplay:10.37,2013-07-25 06:07:00,
2013-07-25 07:12:00,59.2,56.6,29.83,ESE,110,5.8,5.8,91,0.00,BKN,,0.00,33.0,WeatherDisplay:10.37,2013-07-25 06:12:00,
2013-07-25 07:17:00,59.2,56.6,29.83,ESE,120,4.6,4.6,91,0.00,BKN,,0.00,33.0,WeatherDisplay:10.37,2013-07-25 06:17:00,
2013-07-25 07:22:00,59.2,56.6,29.83,ESE,111,5.8,5.8,91,0.00,BKN,,0.00,28.0,WeatherDisplay:10.37,2013-07-25 06:22:00,
2013-07-25 07:27:00,59.2,56.6,29.83,ESE,117,5.8,5.8,91,0.00,BKN,,0.00,25.0,WeatherDisplay:10.37,2013-07-25 06:27:00,
2013-07-25 07:32:00,59.2,56.6,29.83,ESE,118,4.6,4.6,91,0.00,OVC,,0.00,26.0,WeatherDisplay:10.37,2013-07-25 06:32:00,
2013-07-25 07:37:00,59.2,56.6,29.83,ESE,119,3.5,3.5,91,0.00,OVC,,0.00,25.0,WeatherDisplay:10.37,2013-07-25 06:37:00,
2013-07-25 07:42:00,59.3,56.7,29.84,ESE,119,3.5,3.5,91,0.00,OVC,,0.00,21.0,WeatherDisplay:10.37,2013-07-25 06:42:00,
2013-07-25 07:47:00,59.3,56.7,29.84,ESE,122,3.5,3.5,91,0.00,OVC,,0.00,21.0,WeatherDisplay:10.37,2013-07-25 06:47:00,
2013-07-25 07:52:00,59.4,56.8,29.84,SE,124,5.8,5.8,91,0.00,OVC,,0.00,26.0,WeatherDisplay:10.37,2013-07-25 06:52:00,
2013-07-25 07:57:00,59.4,56.8,29.84,SE,126,3.5,3.5,91,0.00,OVC,,0.01,25.0,WeatherDisplay:10.37,2013-07-25 06:57:00,
2013-07-25 08:03:00,59.4,56.8,29.84,SE,126,3.5,3.5,91,0.01,RA,,0.01,19.0,WeatherDisplay:10.37,2013-07-25 07:03:00,
2013-07-25 08:08:00,59.4,56.8,29.84,SE,126,3.0,3.0,91,0.01,RA,,0.01,16.0,WeatherDisplay:10.37,2013-07-25 07:08:00,
2013-07-25 08:13:00,59.4,56.5,29.84,SE,126,3.5,3.5,90,0.01,OVC,,0.01,19.0,WeatherDisplay:10.37,2013-07-25 07:13:00,
2013-07-25 08:18:00,59.4,56.8,29.84,SE,126,2.3,0.0,91,0.01,OVC,,0.01,18.0,WeatherDisplay:10.37,2013-07-25 07:18:00,
2013-07-25 08:23:00,59.4,56.8,29.84,SE,126,0.0,0.0,91,0.02,RA,,0.02,28.0,WeatherDisplay:10.37,2013-07-25 07:23:00,
2013-07-25 08:28:00,59.4,56.8,29.84,SE,125,0.0,0.0,91,0.02,RA,,0.02,26.0,WeatherDisplay:10.37,2013-07-25 07:28:00,
2013-07-25 08:33:00,59.4,56.8,29.84,SE,126,1.2,0.0,91,0.02,RA,,0.02,19.0,WeatherDisplay:10.37,2013-07-25 07:33:00,
2013-07-25 08:38:00,59.4,56.8,29.84,SE,126,3.5,3.5,91,0.04,RA,,0.04,19.0,WeatherDisplay:10.37,2013-07-25 07:38:00,
2013-07-25 08:43:00,59.4,56.8,29.84,SE,125,1.0,0.0,91,0.05,RA,,0.05,21.0,WeatherDisplay:10.37,2013-07-25 07:43:00,
2013-07-25 08:48:00,59.4,56.8,29.84,SE,125,2.3,0.0,91,0.06,RA,,0.06,30.0,WeatherDisplay:10.37,2013-07-25 07:48:00,
2013-07-25 08:53:00,59.4,56.8,29.83,SE,125,0.0,0.0,91,0.07,RA,,0.07,40.0,WeatherDisplay:10.37,2013-07-25 07:53:00,
2013-07-25 08:58:00,59.5,56.9,29.83,SE,126,0.0,0.0,91,0.08,RA,,0.08,39.0,WeatherDisplay:10.37,2013-07-25 07:58:00,
2013-07-25 09:03:00,59.6,57.3,29.83,SE,126,0.0,0.1,92,0.08,RA,,0.09,35.0,WeatherDisplay:10.37,2013-07-25 08:03:00,
2013-07-25 09:08:00,59.7,57.4,29.83,SE,125,2.0,2.0,92,0.09,RA,,0.09,44.0,WeatherDisplay:10.37,2013-07-25 08:08:00,
2013-07-25 09:13:00,59.7,57.4,29.83,SE,126,3.5,3.5,92,0.09,RA,,0.10,51.0,WeatherDisplay:10.37,2013-07-25 08:13:00,
2013-07-25 09:18:00,59.8,57.5,29.83,ESE,121,2.3,2.3,92,0.10,RA,,0.11,72.0,WeatherDisplay:10.37,2013-07-25 08:18:00,
2013-07-25 09:23:00,59.7,57.4,29.83,SE,125,1.2,1.2,92,0.09,RA,,0.11,65.0,WeatherDisplay:10.37,2013-07-25 08:23:00,
2013-07-25 09:28:00,59.7,57.4,29.83,SE,126,0.0,0.2,92,0.09,RA,,0.12,67.0,WeatherDisplay:10.37,2013-07-25 08:28:00,
2013-07-25 09:33:00,59.8,57.5,29.83,SE,125,2.3,2.3,92,0.09,RA,,0.12,62.0,WeatherDisplay:10.37,2013-07-25 08:33:00,
2013-07-25 09:38:00,59.9,57.6,29.83,SE,126,1.2,1.2,92,0.08,OVC,,0.12,47.0,WeatherDisplay:10.37,2013-07-25 08:38:00,
2013-07-25 09:43:00,60.0,57.7,29.83,SE,126,0.0,0.0,92,0.07,OVC,,0.12,49.0,WeatherDisplay:10.37,2013-07-25 08:43:00,
2013-07-25 09:48:00,60.1,57.8,29.83,SE,125,2.0,2.0,92,0.06,OVC,,0.12,63.0,WeatherDisplay:10.37,2013-07-25 08:48:00,
2013-07-25 09:53:00,60.1,57.8,29.83,SE,126,0.0,0.0,92,0.05,OVC,,0.12,65.0,WeatherDisplay:10.37,2013-07-25 08:53:00,
2013-07-25 09:58:00,60.2,57.9,29.83,SE,126,4.0,4.0,92,0.04,OVC,,0.12,40.0,WeatherDisplay:10.37,2013-07-25 08:58:00,
2013-07-25 10:03:00,60.2,57.9,29.83,ESE,121,4.6,4.6,92,0.03,OVC,,0.12,25.0,WeatherDisplay:10.37,2013-07-25 09:03:00,
2013-07-25 10:08:00,60.1,57.8,29.83,ESE,121,4.6,4.6,92,0.02,OVC,,0.12,37.0,WeatherDisplay:10.37,2013-07-25 09:08:00,
2013-07-25 10:13:00,60.1,57.8,29.83,ESE,121,2.3,2.3,92,0.02,OVC,,0.12,26.0,WeatherDisplay:10.37,2013-07-25 09:13:00,
2013-07-25 10:18:00,60.1,57.8,29.83,ESE,121,1.0,1.0,92,0.01,OVC,,0.12,39.0,WeatherDisplay:10.37,2013-07-25 09:18:00,
2013-07-25 10:23:00,60.0,57.7,29.83,ESE,122,2.3,0.0,92,0.01,OVC,,0.12,44.0,WeatherDisplay:10.37,2013-07-25 09:23:00,
2013-07-25 10:28:00,60.1,57.8,29.83,ESE,121,0.0,0.0,92,0.00,OVC,,0.12,37.0,WeatherDisplay:10.37,2013-07-25 09:28:00,
2013-07-25 10:33:00,60.1,57.8,29.83,ESE,118,4.6,4.6,92,0.00,OVC,,0.12,51.0,WeatherDisplay:10.37,2013-07-25 09:33:00,
2013-07-25 10:38:00,60.1,57.8,29.83,ESE,117,4.0,4.0,92,0.00,OVC,,0.12,42.0,WeatherDisplay:10.37,2013-07-25 09:38:00,
2013-07-25 10:43:00,60.1,57.8,29.83,ESE,118,3.5,3.8,92,0.00,OVC,,0.12,47.0,WeatherDisplay:10.37,2013-07-25 09:43:00,
2013-07-25 10:48:00,60.2,57.9,29.83,ESE,118,3.5,3.5,92,0.00,OVC,,0.12,56.0,WeatherDisplay:10.37,2013-07-25 09:48:00,
2013-07-25 10:53:00,60.3,58.0,29.83,ESE,114,3.5,3.5,92,0.00,OVC,,0.12,77.0,WeatherDisplay:10.37,2013-07-25 09:53:00,
2013-07-25 10:58:00,60.4,58.1,29.82,ESE,118,2.3,2.3,92,0.00,BKN,,0.12,134.0,WeatherDisplay:10.37,2013-07-25 09:58:00,
2013-07-25 11:03:00,60.6,58.6,29.82,ESE,118,2.3,2.3,93,0.00,BKN,,0.12,116.0,WeatherDisplay:10.37,2013-07-25 10:03:00,
2013-07-25 11:08:00,60.8,58.8,29.82,ESE,121,3.5,3.5,93,0.00,BKN,,0.12,88.0,WeatherDisplay:10.37,2013-07-25 10:08:00,
2013-07-25 11:13:00,61.0,59.0,29.82,ESE,121,0.0,0.0,93,0.00,BKN,,0.12,70.0,WeatherDisplay:10.37,2013-07-25 10:13:00,
2013-07-25 11:18:00,61.2,59.2,29.82,ESE,117,4.6,4.6,93,0.00,OVC,,0.12,76.0,WeatherDisplay:10.37,2013-07-25 10:18:00,
2013-07-25 11:23:00,61.3,59.3,29.82,ESE,115,0.0,0.0,93,0.00,BKN,,0.12,132.0,WeatherDisplay:10.37,2013-07-25 10:23:00,
2013-07-25 11:28:00,61.5,59.5,29.82,ESE,115,3.5,3.5,93,0.00,BKN,,0.12,100.0,WeatherDisplay:10.37,2013-07-25 10:28:00,
2013-07-25 11:33:00,61.6,59.6,29.82,ESE,118,3.5,3.5,93,0.00,BKN,,0.12,86.0,WeatherDisplay:10.37,2013-07-25 10:33:00,
2013-07-25 11:38:00,61.8,59.8,29.82,ESE,107,4.6,4.6,93,0.00,BKN,,0.12,128.0,WeatherDisplay:10.37,2013-07-25 10:38:00,
2013-07-25 11:43:00,61.8,59.5,29.82,ESE,113,6.0,6.0,92,0.00,BKN,,0.12,111.0,WeatherDisplay:10.37,2013-07-25 10:43:00,
2013-07-25 11:48:00,61.9,59.5,29.82,ESE,110,4.6,4.6,92,0.00,BKN,,0.12,62.0,WeatherDisplay:10.37,2013-07-25 10:48:00,
2013-07-25 11:53:00,62.0,59.6,29.82,East,94,5.0,5.0,92,0.00,OVC,,0.12,40.0,WeatherDisplay:10.37,2013-07-25 10:53:00,
2013-07-25 11:58:00,62.1,59.7,29.81,East,96,3.5,3.5,92,0.00,OVC,,0.12,47.0,WeatherDisplay:10.37,2013-07-25 10:58:00,
2013-07-25 12:03:00,62.2,59.8,29.81,East,96,2.3,2.3,92,0.00,OVC,,0.12,33.0,WeatherDisplay:10.37,2013-07-25 11:03:00,
2013-07-25 12:08:00,62.1,59.7,29.82,East,96,3.5,3.5,92,0.00,OVC,,0.12,76.0,WeatherDisplay:10.37,2013-07-25 11:08:00,
2013-07-25 12:13:00,62.1,59.4,29.82,East,94,3.5,3.5,91,0.00,OVC,,0.12,51.0,WeatherDisplay:10.37,2013-07-25 11:13:00,
2013-07-25 12:18:00,62.0,59.3,29.81,East,94,3.0,3.0,91,0.00,OVC,,0.12,58.0,WeatherDisplay:10.37,2013-07-25 11:18:00,
2013-07-25 12:23:00,62.0,59.3,29.82,SE,134,8.1,8.1,91,0.00,OVC,,0.12,49.0,WeatherDisplay:10.37,2013-07-25 11:23:00,
2013-07-25 12:29:00,61.8,58.8,29.82,ESE,110,6.0,6.0,90,0.00,OVC,,0.12,65.0,WeatherDisplay:10.37,2013-07-25 11:29:00,
2013-07-25 12:34:00,61.8,59.1,29.81,ESE,122,6.0,6.0,91,0.00,OVC,,0.12,72.0,WeatherDisplay:10.37,2013-07-25 11:34:00,
2013-07-25 12:39:00,61.7,59.0,29.81,ESE,106,6.0,6.0,91,0.00,OVC,,0.12,56.0,WeatherDisplay:10.37,2013-07-25 11:39:00,
2013-07-25 12:44:00,61.7,59.0,29.81,ESE,113,6.9,6.9,91,0.00,OVC,,0.12,118.0,WeatherDisplay:10.37,2013-07-25 11:44:00,
2013-07-25 12:49:00,61.7,59.0,29.81,ESE,110,5.8,5.8,91,0.00,BKN,,0.12,134.0,WeatherDisplay:10.37,2013-07-25 11:49:00,
2013-07-25 12:54:00,62.0,59.6,29.81,ESE,113,5.8,5.8,92,0.00,BKN,,0.12,199.0,WeatherDisplay:10.37,2013-07-25 11:54:00,
2013-07-25 12:59:00,62.2,59.8,29.81,ESE,109,5.8,5.8,92,0.00,BKN,,0.12,179.0,WeatherDisplay:10.37,2013-07-25 11:59:00,
2013-07-25 13:04:00,62.4,59.7,29.81,SE,129,5.8,5.8,91,0.00,BKN,,0.12,197.0,WeatherDisplay:10.37,2013-07-25 12:04:00,
2013-07-25 13:09:00,62.7,60.3,29.81,ESE,102,9.2,9.2,92,0.00,BKN,,0.12,410.0,WeatherDisplay:10.37,2013-07-25 12:09:00,
2013-07-25 13:14:00,63.1,60.4,29.81,ESE,111,5.8,5.8,91,0.00,BKN,,0.12,206.0,WeatherDisplay:10.37,2013-07-25 12:14:00,
2013-07-25 13:19:00,63.3,60.6,29.81,NE,53,4.6,4.6,91,0.00,BKN,,0.12,144.0,WeatherDisplay:10.37,2013-07-25 12:19:00,
2013-07-25 13:24:00,63.5,60.5,29.81,ESE,109,6.9,6.9,90,0.00,BKN,,0.12,100.0,WeatherDisplay:10.37,2013-07-25 12:24:00,
2013-07-25 13:29:00,63.7,60.7,29.81,SE,126,6.9,6.9,90,0.00,BKN,,0.12,93.0,WeatherDisplay:10.37,2013-07-25 12:29:00,
2013-07-25 13:34:00,63.8,60.8,29.81,East,100,4.6,4.6,90,0.00,BKN,,0.12,176.0,WeatherDisplay:10.37,2013-07-25 12:34:00,
2013-07-25 13:39:00,63.8,59.9,29.81,ESE,114,10.4,10.4,87,0.00,BKN,,0.12,163.0,WeatherDisplay:10.37,2013-07-25 12:39:00,
2013-07-25 13:44:00,63.8,59.9,29.81,ESE,121,9.2,9.2,87,0.00,BKN,,0.12,128.0,WeatherDisplay:10.37,2013-07-25 12:44:00,
2013-07-25 13:49:00,63.6,59.3,29.81,ESE,123,11.5,11.5,86,0.00,BKN,,0.12,195.0,WeatherDisplay:10.37,2013-07-25 12:49:00,
2013-07-25 13:54:00,63.6,59.7,29.81,ESE,123,11.5,11.5,87,0.00,BKN,,0.12,130.0,WeatherDisplay:10.37,2013-07-25 12:54:00,
2013-07-25 13:59:00,63.6,59.7,29.80,ESE,119,4.6,4.6,87,0.00,BKN,,0.12,130.0,WeatherDisplay:10.37,2013-07-25 12:59:00,
2013-07-25 14:04:00,63.7,59.8,29.81,SE,130,8.1,8.1,87,0.00,BKN,,0.12,162.0,WeatherDisplay:10.37,2013-07-25 13:04:00,
2013-07-25 14:09:00,63.8,59.9,29.80,ESE,108,4.0,4.0,87,0.00,BKN,,0.12,160.0,WeatherDisplay:10.37,2013-07-25 13:09:00,
2013-07-25 14:14:00,63.9,60.0,29.81,ESE,118,5.0,5.0,87,0.00,BKN,,0.12,37.0,WeatherDisplay:10.37,2013-07-25 13:14:00,
2013-07-25 14:19:00,63.8,59.5,29.81,ESE,113,10.4,10.4,86,0.00,OVC,,0.12,53.0,WeatherDisplay:10.37,2013-07-25 13:19:00,
2013-07-25 14:24:00,63.7,59.4,29.81,ESE,118,11.5,11.5,86,0.00,OVC,,0.12,86.0,WeatherDisplay:10.37,2013-07-25 13:24:00,
2013-07-25 14:29:00,63.6,59.3,29.80,ESE,115,6.9,6.9,86,0.00,OVC,,0.12,123.0,WeatherDisplay:10.37,2013-07-25 13:29:00,
2013-07-25 14:34:00,63.6,59.3,29.81,ESE,109,4.6,4.6,86,0.00,BKN,,0.12,123.0,WeatherDisplay:10.37,2013-07-25 13:34:00,
2013-07-25 14:39:00,63.6,59.3,29.80,ESE,114,11.5,11.5,86,0.00,BKN,,0.12,135.0,WeatherDisplay:10.37,2013-07-25 13:39:00,
2013-07-25 14:44:00,63.5,59.2,29.81,SE,136,6.9,6.9,86,0.00,BKN,,0.12,135.0,WeatherDisplay:10.37,2013-07-25 13:44:00,
2013-07-25 14:49:00,63.4,59.1,29.81,ESE,123,6.9,6.9,86,0.00,BKN,,0.12,211.0,WeatherDisplay:10.37,2013-07-25 13:49:00,
2013-07-25 14:54:00,63.3,59.0,29.81,SE,129,11.5,11.5,86,0.00,BKN,,0.12,109.0,WeatherDisplay:10.37,2013-07-25 13:54:00,
2013-07-25 14:59:00,63.2,59.3,29.81,ESE,110,5.8,5.8,87,0.00,BKN,,0.12,163.0,WeatherDisplay:10.37,2013-07-25 13:59:00,
2013-07-25 15:04:00,63.3,59.4,29.81,SE,124,11.5,11.5,87,0.00,BKN,,0.12,134.0,WeatherDisplay:10.37,2013-07-25 14:04:00,
2013-07-25 15:09:00,63.3,59.0,29.80,ESE,103,9.2,9.2,86,0.00,BKN,,0.12,160.0,WeatherDisplay:10.37,2013-07-25 14:09:00,
2013-07-25 15:14:00,63.3,59.4,29.80,ESE,108,6.9,6.9,87,0.00,BKN,,0.12,63.0,WeatherDisplay:10.37,2013-07-25 14:14:00,
2013-07-25 15:19:00,63.3,59.0,29.80,ESE,123,5.8,5.8,86,0.00,BKN,,0.12,114.0,WeatherDisplay:10.37,2013-07-25 14:19:00,
2013-07-25 15:24:00,63.3,59.4,29.80,ESE,103,5.8,5.8,87,0.00,BKN,,0.12,234.0,WeatherDisplay:10.37,2013-07-25 14:24:00,
2013-07-25 15:29:00,63.6,60.0,29.80,ESE,114,5.8,5.8,88,0.00,BKN,,0.12,281.0,WeatherDisplay:10.37,2013-07-25 14:29:00,
2013-07-25 15:34:00,63.9,60.0,29.80,ESE,121,9.2,9.2,87,0.00,BKN,,0.12,334.0,WeatherDisplay:10.37,2013-07-25 14:34:00,
2013-07-25 15:39:00,64.3,60.0,29.80,SE,126,11.5,11.5,86,0.00,BKN,,0.12,199.0,WeatherDisplay:10.37,2013-07-25 14:39:00,
2013-07-25 15:44:00,64.6,59.7,29.79,ESE,107,7.0,7.0,84,0.00,BKN,,0.12,97.0,WeatherDisplay:10.37,2013-07-25 14:44:00,
2013-07-25 15:49:00,64.8,59.9,29.79,SE,128,6.9,6.9,84,0.00,BKN,,0.12,290.0,WeatherDisplay:10.37,2013-07-25 14:49:00,
2013-07-25 15:54:00,65.1,60.1,29.79,ESE,119,6.9,6.9,84,0.00,BKN,,0.12,214.0,WeatherDisplay:10.37,2013-07-25 14:54:00,
2013-07-25 15:59:00,65.3,60.0,29.78,ESE,107,13.0,13.0,83,0.00,BKN,,0.12,155.0,WeatherDisplay:10.37,2013-07-25 14:59:00,
2013-07-25 16:04:00,65.4,60.1,29.79,ESE,109,6.9,6.9,83,0.00,BKN,,0.12,281.0,WeatherDisplay:10.37,2013-07-25 15:04:00,
2013-07-25 16:09:00,65.5,60.2,29.79,ESE,111,9.2,9.2,83,0.00,BKN,,0.12,151.0,WeatherDisplay:10.37,2013-07-25 15:09:00,
2013-07-25 16:14:00,65.6,60.3,29.79,ESE,115,12.0,12.0,83,0.00,BKN,,0.12,139.0,WeatherDisplay:10.37,2013-07-25 15:14:00,
2013-07-25 16:19:00,65.5,59.9,29.79,SE,133,9.2,9.2,82,0.00,BKN,,0.12,79.0,WeatherDisplay:10.37,2013-07-25 15:19:00,
2013-07-25 16:24:00,65.5,59.9,29.79,ESE,108,5.8,5.8,82,0.00,BKN,,0.12,67.0,WeatherDisplay:10.37,2013-07-25 15:24:00,
2013-07-25 16:29:00,65.3,59.7,29.79,ESE,110,11.5,11.5,82,0.00,OVC,,0.12,49.0,WeatherDisplay:10.37,2013-07-25 15:29:00,
2013-07-25 16:34:00,65.1,59.8,29.79,SE,126,10.4,10.4,83,0.00,OVC,,0.12,44.0,WeatherDisplay:10.37,2013-07-25 15:34:00,
2013-07-25 16:39:00,64.8,59.9,29.79,East,94,10.0,10.0,84,0.01,RA,,0.13,44.0,WeatherDisplay:10.37,2013-07-25 15:39:00,
2013-07-25 16:44:00,64.4,59.8,29.79,SE,128,10.4,10.4,85,0.02,RA,,0.13,77.0,WeatherDisplay:10.37,2013-07-25 15:44:00,
2013-07-25 16:50:00,64.1,59.8,29.79,SE,140,10.4,10.4,86,0.02,RA,,0.13,86.0,WeatherDisplay:10.37,2013-07-25 15:50:00,
2013-07-25 16:55:00,63.8,59.9,29.80,ESE,121,5.8,5.8,87,0.02,BKN,,0.13,142.0,WeatherDisplay:10.37,2013-07-25 15:55:00,
2013-07-25 17:00:00,63.6,59.7,29.80,SE,137,8.1,8.1,87,0.02,BKN,,0.13,160.0,WeatherDisplay:10.37,2013-07-25 16:00:00,
2013-07-25 17:05:00,63.4,59.8,29.80,ESE,108,6.0,6.0,88,0.02,BKN,,0.13,155.0,WeatherDisplay:10.37,2013-07-25 16:05:00,
2013-07-25 17:10:00,63.3,59.7,29.80,ESE,122,5.8,5.8,88,0.02,BKN,,0.13,160.0,WeatherDisplay:10.37,2013-07-25 16:10:00,
2013-07-25 17:15:00,63.3,60.0,29.80,ESE,123,7.0,7.0,89,0.02,BKN,,0.13,139.0,WeatherDisplay:10.37,2013-07-25 16:15:00,
2013-07-25 17:20:00,63.3,60.0,29.80,SE,124,6.9,6.9,89,0.02,BKN,,0.13,128.0,WeatherDisplay:10.37,2013-07-25 16:20:00,
2013-07-25 17:25:00,63.5,60.5,29.80,ESE,109,6.9,6.9,90,0.02,BKN,,0.13,105.0,WeatherDisplay:10.37,2013-07-25 16:25:00,
2013-07-25 17:30:00,63.4,60.1,29.79,East,90,5.8,5.8,89,0.02,BKN,,0.13,114.0,WeatherDisplay:10.37,2013-07-25 16:30:00,
2013-07-25 17:35:00,63.4,60.1,29.79,ESE,121,3.5,3.5,89,0.02,BKN,,0.13,114.0,WeatherDisplay:10.37,2013-07-25 16:35:00,
2013-07-25 17:40:00,63.5,60.2,29.79,SE,126,10.0,10.0,89,0.01,BKN,,0.13,98.0,WeatherDisplay:10.37,2013-07-25 16:40:00,
2013-07-25 17:45:00,63.5,60.2,29.79,ESE,102,4.6,4.6,89,0.00,BKN,,0.14,88.0,WeatherDisplay:10.37,2013-07-25 16:45:00,
2013-07-25 17:50:00,63.4,60.1,29.79,SE,131,4.6,4.6,89,0.01,RA,,0.14,76.0,WeatherDisplay:10.37,2013-07-25 16:50:00,
2013-07-25 17:55:00,63.3,59.7,29.79,ESE,116,8.1,8.1,88,0.01,BKN,,0.14,62.0,WeatherDisplay:10.37,2013-07-25 16:55:00,
2013-07-25 18:00:00,63.2,59.6,29.79,ESE,123,4.6,4.6,88,0.01,BKN,,0.14,63.0,WeatherDisplay:10.37,2013-07-25 17:00:00,
2013-07-25 18:05:00,63.1,59.8,29.79,East,101,5.0,5.0,89,0.01,BKN,,0.14,74.0,WeatherDisplay:10.37,2013-07-25 17:05:00,
2013-07-25 18:10:00,63.1,59.8,29.79,ESE,102,5.8,5.8,89,0.01,BKN,,0.14,74.0,WeatherDisplay:10.37,2013-07-25 17:10:00,
2013-07-25 18:15:00,63.0,59.7,29.79,ESE,121,5.8,5.8,89,0.01,BKN,,0.14,90.0,WeatherDisplay:10.37,2013-07-25 17:15:00,
2013-07-25 18:20:00,63.0,59.7,29.79,ESE,121,4.6,4.6,89,0.01,BKN,,0.14,88.0,WeatherDisplay:10.37,2013-07-25 17:20:00,
2013-07-25 18:25:00,63.0,59.7,29.79,ESE,119,4.6,4.6,89,0.01,BKN,,0.14,69.0,WeatherDisplay:10.37,2013-07-25 17:25:00,
2013-07-25 18:30:00,63.0,59.7,29.79,ESE,118,3.5,3.5,89,0.01,BKN,,0.14,67.0,WeatherDisplay:10.37,2013-07-25 17:30:00,
2013-07-25 18:35:00,63.1,59.8,29.80,ESE,119,3.5,3.5,89,0.01,BKN,,0.14,58.0,WeatherDisplay:10.37,2013-07-25 17:35:00,
2013-07-25 18:40:00,63.2,60.2,29.79,ESE,118,0.0,0.0,90,0.01,BKN,,0.14,51.0,WeatherDisplay:10.37,2013-07-25 17:40:00,
2013-07-25 18:45:00,63.2,60.2,29.79,ESE,114,4.6,4.6,90,0.00,BKN,,0.14,46.0,WeatherDisplay:10.37,2013-07-25 17:45:00,
2013-07-25 18:50:00,63.2,59.9,29.79,ESE,115,5.8,5.8,89,0.00,BKN,,0.14,39.0,WeatherDisplay:10.37,2013-07-25 17:50:00,
2013-07-25 18:55:00,63.3,60.0,29.79,ESE,116,4.6,4.6,89,0.00,BKN,,0.14,51.0,WeatherDisplay:10.37,2013-07-25 17:55:00,
2013-07-25 19:00:00,63.3,60.0,29.79,ESE,119,5.8,5.8,89,0.00,BKN,,0.14,39.0,WeatherDisplay:10.37,2013-07-25 18:00:00,
2013-07-25 19:05:00,63.3,59.7,29.80,ESE,112,11.0,11.0,88,0.00,BKN,,0.14,32.0,WeatherDisplay:10.37,2013-07-25 18:05:00,
2013-07-25 19:10:00,63.3,59.7,29.79,ESE,109,5.8,5.8,88,0.00,BKN,,0.14,40.0,WeatherDisplay:10.37,2013-07-25 18:10:00,
2013-07-25 19:15:00,63.2,59.9,29.80,SE,128,10.4,10.4,89,0.00,BKN,,0.14,32.0,WeatherDisplay:10.37,2013-07-25 18:15:00,
2013-07-25 19:20:00,63.2,59.6,29.79,ESE,115,10.4,10.4,88,0.00,BKN,,0.14,32.0,WeatherDisplay:10.37,2013-07-25 18:20:00,
2013-07-25 19:25:00,63.1,59.8,29.79,ESE,110,7.0,7.0,89,0.00,BKN,,0.14,40.0,WeatherDisplay:10.37,2013-07-25 18:25:00,
2013-07-25 19:30:00,63.0,59.7,29.79,ESE,116,11.5,11.5,89,0.00,BKN,,0.14,37.0,WeatherDisplay:10.37,2013-07-25 18:30:00,
2013-07-25 19:35:00,62.8,59.5,29.80,SE,137,8.1,8.1,89,0.00,BKN,,0.14,35.0,WeatherDisplay:10.37,2013-07-25 18:35:00,
2013-07-25 19:40:00,62.8,59.5,29.80,ESE,121,11.5,11.5,89,0.00,BKN,,0.14,42.0,WeatherDisplay:10.37,2013-07-25 18:40:00,
2013-07-25 19:45:00,62.7,59.4,29.80,ESE,111,11.5,11.5,89,0.00,BKN,,0.14,49.0,WeatherDisplay:10.37,2013-07-25 18:45:00,
2013-07-25 19:50:00,62.6,59.3,29.80,ESE,109,6.0,6.0,89,0.00,BKN,,0.14,54.0,WeatherDisplay:10.37,2013-07-25 18:50:00,
2013-07-25 19:55:00,62.5,59.2,29.79,SE,124,6.9,6.9,89,0.00,BKN,,0.14,37.0,WeatherDisplay:10.37,2013-07-25 18:55:00,
2013-07-25 20:00:00,62.5,59.2,29.79,ESE,118,10.4,10.4,89,0.00,BKN,,0.14,30.0,WeatherDisplay:10.37,2013-07-25 19:00:00,
2013-07-25 20:05:00,62.4,59.4,29.80,ESE,111,6.9,6.9,90,0.00,BKN,,0.14,33.0,WeatherDisplay:10.37,2013-07-25 19:05:00,
2013-07-25 20:10:00,62.4,59.4,29.80,SE,130,4.6,4.6,90,0.00,BKN,,0.14,30.0,WeatherDisplay:10.37,2013-07-25 19:10:00,
2013-07-25 20:15:00,62.4,59.1,29.80,ESE,107,6.9,6.9,89,0.00,BKN,,0.14,35.0,WeatherDisplay:10.37,2013-07-25 19:15:00,
2013-07-25 20:20:00,62.3,59.3,29.80,ESE,115,3.5,3.5,90,0.00,BKN,,0.14,32.0,WeatherDisplay:10.37,2013-07-25 19:20:00,
2013-07-25 20:25:00,62.3,59.3,29.79,ESE,115,4.6,4.6,90,0.00,BKN,,0.14,25.0,WeatherDisplay:10.37,2013-07-25 19:25:00,
2013-07-25 20:30:00,62.3,59.3,29.79,ESE,109,6.9,6.9,90,0.00,BKN,,0.14,23.0,WeatherDisplay:10.37,2013-07-25 19:30:00,
2013-07-25 20:35:00,62.3,59.3,29.79,ESE,119,5.8,5.8,90,0.00,BKN,,0.14,19.0,WeatherDisplay:10.37,2013-07-25 19:35:00,
2013-07-25 20:40:00,62.3,59.3,29.79,ESE,117,10.4,10.4,90,0.00,BKN,,0.14,21.0,WeatherDisplay:10.37,2013-07-25 19:40:00,
2013-07-25 20:45:00,62.3,59.3,29.79,ESE,113,5.8,5.8,90,0.00,BKN,,0.14,25.0,WeatherDisplay:10.37,2013-07-25 19:45:00,
2013-07-25 20:50:00,62.3,59.3,29.79,SE,130,4.6,4.6,90,0.00,BKN,,0.14,23.0,WeatherDisplay:10.37,2013-07-25 19:50:00,
2013-07-25 20:55:00,62.3,59.3,29.79,ESE,119,4.6,4.6,90,0.00,BKN,,0.14,18.0,WeatherDisplay:10.37,2013-07-25 19:55:00,
2013-07-25 21:00:00,62.2,59.2,29.79,SE,128,6.9,6.9,90,0.00,BKN,,0.14,12.0,WeatherDisplay:10.37,2013-07-25 20:00:00,
2013-07-25 21:05:00,62.2,59.2,29.79,SE,136,4.6,4.6,90,0.00,BKN,,0.14,9.0,WeatherDisplay:10.37,2013-07-25 20:05:00,
2013-07-25 21:10:00,62.2,59.2,29.80,ESE,121,9.2,9.2,90,0.00,BKN,,0.14,7.0,WeatherDisplay:10.37,2013-07-25 20:10:00,
2013-07-25 21:15:00,62.1,59.1,29.80,ESE,123,4.6,4.6,90,0.00,BKN,,0.14,5.0,WeatherDisplay:10.37,2013-07-25 20:15:00,
2013-07-25 21:20:00,61.9,58.9,29.80,SE,125,6.9,6.9,90,0.00,BKN,,0.14,0.0,WeatherDisplay:10.37,2013-07-25 20:20:00,
2013-07-25 21:25:00,61.8,58.8,29.80,ESE,119,8.1,8.1,90,0.00,OVC,,0.14,0.0,WeatherDisplay:10.37,2013-07-25 20:25:00,
2013-07-25 21:31:00,61.7,58.7,29.80,ESE,107,6.9,6.9,90,0.00,OVC,,0.14,0.0,WeatherDisplay:10.37,2013-07-25 20:31:00,
2013-07-25 21:36:00,61.6,58.6,29.80,ESE,115,10.0,10.0,90,0.00,OVC,,0.14,0.0,WeatherDisplay:10.37,2013-07-25 20:36:00,
2013-07-25 21:41:00,61.5,58.5,29.80,SE,128,6.0,6.0,90,0.00,OVC,,0.14,0.0,WeatherDisplay:10.37,2013-07-25 20:41:00,
2013-07-25 21:46:00,61.5,58.5,29.81,SE,136,9.2,9.2,90,0.00,OVC,,0.14,0.0,WeatherDisplay:10.37,2013-07-25 20:46:00,
2013-07-25 21:51:00,61.5,58.5,29.81,SE,131,5.8,5.8,90,0.00,OVC,,0.14,0.0,WeatherDisplay:10.37,2013-07-25 20:51:00,
2013-07-25 21:56:00,61.4,58.4,29.81,SE,130,4.0,4.0,90,0.00,OVC,,0.14,0.0,WeatherDisplay:10.37,2013-07-25 20:56:00,
2013-07-25 22:01:00,61.4,58.4,29.81,SE,125,5.8,5.8,90,0.00,CLR,,0.14,0.0,WeatherDisplay:10.37,2013-07-25 21:01:00,
2013-07-25 22:06:00,61.3,58.3,29.81,ESE,120,3.5,3.5,90,0.00,CLR,,0.14,0.0,WeatherDisplay:10.37,2013-07-25 21:06:00,
2013-07-25 22:11:00,61.2,58.2,29.81,ESE,117,6.9,6.9,90,0.00,CLR,,0.14,0.0,WeatherDisplay:10.37,2013-07-25 21:11:00,
2013-07-25 22:16:00,61.1,58.1,29.81,ESE,115,5.8,5.8,90,0.00,CLR,,0.14,0.0,WeatherDisplay:10.37,2013-07-25 21:16:00,
2013-07-25 22:21:00,61.0,58.0,29.81,ESE,119,4.6,4.6,90,0.00,CLR,,0.14,0.0,WeatherDisplay:10.37,2013-07-25 21:21:00,
2013-07-25 22:26:00,60.9,57.9,29.81,ESE,116,6.9,6.9,90,0.00,CLR,,0.14,0.0,WeatherDisplay:10.37,2013-07-25 21:26:00,
2013-07-25 22:31:00,60.8,57.8,29.81,ESE,118,4.6,4.6,90,0.00,CLR,,0.14,0.0,WeatherDisplay:10.37,2013-07-25 21:31:00,
2013-07-25 22:36:00,60.8,57.8,29.81,ESE,117,3.5,3.5,90,0.00,CLR,,0.14,0.0,WeatherDisplay:10.37,2013-07-25 21:36:00,
2013-07-25 22:41:00,60.7,57.7,29.81,ESE,119,2.3,0.0,90,0.00,CLR,,0.14,0.0,WeatherDisplay:10.37,2013-07-25 21:41:00,
2013-07-25 22:46:00,60.7,57.7,29.81,ESE,119,0.0,0.0,90,0.00,CLR,,0.14,0.0,WeatherDisplay:10.37,2013-07-25 21:46:00,
2013-07-25 22:51:00,60.6,57.7,29.81,ESE,119,0.0,0.0,90,0.00,CLR,,0.14,0.0,WeatherDisplay:10.37,2013-07-25 21:51:00,
2013-07-25 22:56:00,60.6,58.0,29.81,ESE,119,0.0,0.0,91,0.00,CLR,,0.14,0.0,WeatherDisplay:10.37,2013-07-25 21:56:00,
2013-07-25 23:01:00,60.5,57.6,29.81,ESE,119,0.0,0.0,90,0.00,CLR,,0.14,0.0,WeatherDisplay:10.37,2013-07-25 22:01:00,
2013-07-25 23:06:00,60.4,57.5,29.81,ESE,119,0.0,0.0,90,0.00,CLR,,0.14,0.0,WeatherDisplay:10.37,2013-07-25 22:06:00,
2013-07-25 23:11:00,60.2,57.3,29.81,ESE,119,0.0,0.0,90,0.00,CLR,,0.14,0.0,WeatherDisplay:10.37,2013-07-25 22:11:00,
2013-07-25 23:16:00,60.1,57.2,29.81,ESE,121,3.5,3.5,90,0.00,CLR,,0.14,0.0,WeatherDisplay:10.37,2013-07-25 22:16:00,
2013-07-25 23:21:00,59.9,57.0,29.81,SE,126,4.0,4.0,90,0.00,CLR,,0.14,0.0,WeatherDisplay:10.37,2013-07-25 22:21:00,
2013-07-25 23:26:00,59.9,57.0,29.81,SSE,161,6.9,6.9,90,0.00,CLR,,0.14,0.0,WeatherDisplay:10.37,2013-07-25 22:26:00,
2013-07-25 23:31:00,59.8,56.9,29.81,South,172,6.9,6.9,90,0.00,CLR,,0.14,0.0,WeatherDisplay:10.37,2013-07-25 22:31:00,
2013-07-25 23:37:00,59.7,56.8,29.82,SSE,150,6.9,6.9,90,0.00,CLR,,0.14,0.0,WeatherDisplay:10.37,2013-07-25 22:37:00,
2013-07-25 23:42:00,59.7,56.8,29.81,SE,145,9.2,9.2,90,0.00,CLR,,0.14,0.0,WeatherDisplay:10.37,2013-07-25 22:42:00,
2013-07-25 23:47:00,59.6,56.7,29.81,SSE,149,3.5,3.7,90,0.00,CLR,,0.14,0.0,WeatherDisplay:10.37,2013-07-25 22:47:00,
2013-07-25 23:52:00,59.5,56.3,29.81,SSE,152,3.5,3.5,89,0.00,CLR,,0.14,0.0,WeatherDisplay:10.37,2013-07-25 22:52:00,
2013-07-25 23:57:00,59.4,56.2,29.82,SSE,153,0.0,0.0,89,0.00,CLR,,0.14,0.0,WeatherDisplay:10.37,2013-07-25 22:57:00,